N264KA LOWZ-LIPB
Flight info
| Callsign | N264KA |
|---|---|
| Flight time | 0h 36m |
| Altitude | 18000 |
| Route | DCT LIZUM M736 NAXAV NAXAV1X |
| Aircraft | C525/L-SDFGRWY/S |
Departure
| Time | 2026-04-17 11:51 |
|---|---|
| Airport | Zell am See Airfield (LOWZ) |
Arrival
| Time | 2026-04-17 12:27 |
|---|---|
| Airport | Bolzano Airport (LIPB) |
| Time | Latitude | Longitude | Altitude | Speed | Heading |
|---|---|---|---|---|---|
| 2026-04-17 11:23 | 47.29211 | 12.78810 | 2520 ft | 0 kts | 256° |
| 2026-04-17 11:48 | 47.29211 | 12.78809 | 2522 ft | 0 kts | 256° |
| 2026-04-17 11:48 | 47.29209 | 12.78801 | 2522 ft | 2 kts | 249° |
| 2026-04-17 11:49 | 47.29198 | 12.78762 | 2522 ft | 5 kts | 247° |
| 2026-04-17 11:49 | 47.29177 | 12.78687 | 2522 ft | 10 kts | 248° |
| 2026-04-17 11:49 | 47.29143 | 12.78587 | 2522 ft | 11 kts | 192° |
| 2026-04-17 11:49 | 47.29074 | 12.78587 | 2522 ft | 5 kts | 165° |
| 2026-04-17 11:50 | 47.29071 | 12.78597 | 2522 ft | 0 kts | 73° |
| 2026-04-17 11:50 | 47.29136 | 12.78969 | 2520 ft | 79 kts | 76° |
| 2026-04-17 11:50 | 47.29313 | 12.80051 | 2690 ft | 124 kts | 76° |
| 2026-04-17 11:51 | 47.29547 | 12.81271 | 3328 ft | 127 kts | 64° |
| 2026-04-17 11:51 | 47.30097 | 12.82229 | 3966 ft | 130 kts | 33° |
| 2026-04-17 11:51 | 47.30975 | 12.82488 | 4630 ft | 133 kts | 351° |
| 2026-04-17 11:51 | 47.31670 | 12.81682 | 5274 ft | 141 kts | 301° |
| 2026-04-17 11:52 | 47.31831 | 12.80153 | 5727 ft | 169 kts | 267° |
| 2026-04-17 11:52 | 47.31682 | 12.78417 | 6522 ft | 174 kts | 262° |
| 2026-04-17 11:52 | 47.31400 | 12.76681 | 7268 ft | 178 kts | 256° |
| 2026-04-17 11:52 | 47.31068 | 12.74950 | 8003 ft | 180 kts | 255° |
| 2026-04-17 11:53 | 47.30724 | 12.73210 | 8728 ft | 181 kts | 256° |
| 2026-04-17 11:53 | 47.30372 | 12.71428 | 9474 ft | 182 kts | 255° |
| 2026-04-17 11:53 | 47.30027 | 12.69672 | 10215 ft | 182 kts | 256° |
| 2026-04-17 11:53 | 47.29680 | 12.67900 | 10955 ft | 181 kts | 257° |
| 2026-04-17 11:54 | 47.29341 | 12.66159 | 11670 ft | 179 kts | 257° |
| 2026-04-17 11:54 | 47.29005 | 12.64436 | 12395 ft | 175 kts | 258° |
| 2026-04-17 11:54 | 47.28670 | 12.62704 | 12947 ft | 182 kts | 259° |
| 2026-04-17 11:54 | 47.28326 | 12.60913 | 13473 ft | 189 kts | 259° |
| 2026-04-17 11:55 | 47.27960 | 12.59010 | 14004 ft | 196 kts | 259° |
| 2026-04-17 11:55 | 47.27586 | 12.57070 | 14533 ft | 203 kts | 259° |
| 2026-04-17 11:55 | 47.27198 | 12.55058 | 15081 ft | 209 kts | 259° |
| 2026-04-17 11:55 | 47.26799 | 12.52989 | 15624 ft | 216 kts | 259° |
| 2026-04-17 11:56 | 47.26383 | 12.50841 | 16156 ft | 221 kts | 259° |
| 2026-04-17 11:56 | 47.25958 | 12.48647 | 16679 ft | 226 kts | 259° |
| 2026-04-17 11:56 | 47.25510 | 12.46340 | 17215 ft | 231 kts | 259° |
| 2026-04-17 11:56 | 47.25054 | 12.43991 | 17740 ft | 235 kts | 259° |
| 2026-04-17 11:57 | 47.24602 | 12.41669 | 18270 ft | 238 kts | 260° |
| 2026-04-17 11:57 | 47.24147 | 12.39335 | 18798 ft | 240 kts | 259° |
| 2026-04-17 11:57 | 47.23687 | 12.36978 | 19330 ft | 242 kts | 260° |
| 2026-04-17 11:57 | 47.23219 | 12.34585 | 19878 ft | 244 kts | 259° |
| 2026-04-17 11:58 | 47.22754 | 12.32206 | 20222 ft | 248 kts | 259° |
| 2026-04-17 11:58 | 47.22263 | 12.29680 | 20255 ft | 260 kts | 259° |
| 2026-04-17 11:58 | 47.21757 | 12.27083 | 20269 ft | 270 kts | 259° |
| 2026-04-17 11:58 | 47.21229 | 12.24382 | 20267 ft | 280 kts | 258° |
| 2026-04-17 11:59 | 47.20683 | 12.21597 | 20279 ft | 289 kts | 258° |
| 2026-04-17 11:59 | 47.20122 | 12.18746 | 20273 ft | 297 kts | 258° |
| 2026-04-17 11:59 | 47.19538 | 12.15784 | 20278 ft | 304 kts | 258° |
| 2026-04-17 11:59 | 47.18939 | 12.12753 | 20265 ft | 309 kts | 258° |
| 2026-04-17 12:00 | 47.18315 | 12.09603 | 20269 ft | 314 kts | 258° |
| 2026-04-17 12:00 | 47.17669 | 12.06346 | 20261 ft | 318 kts | 258° |
| 2026-04-17 12:00 | 47.17050 | 12.03226 | 20260 ft | 321 kts | 258° |
| 2026-04-17 12:00 | 47.16424 | 12.00080 | 20257 ft | 323 kts | 258° |
| 2026-04-17 12:01 | 47.15791 | 11.96906 | 20252 ft | 324 kts | 258° |
| 2026-04-17 12:01 | 47.15160 | 11.93745 | 20255 ft | 325 kts | 258° |
| 2026-04-17 12:01 | 47.14526 | 11.90573 | 20256 ft | 326 kts | 258° |
| 2026-04-17 12:01 | 47.13888 | 11.87384 | 20260 ft | 326 kts | 257° |
| 2026-04-17 12:02 | 47.13231 | 11.84100 | 20263 ft | 327 kts | 257° |
| 2026-04-17 12:02 | 47.12584 | 11.80879 | 20259 ft | 327 kts | 258° |
| 2026-04-17 12:02 | 47.11729 | 11.77625 | 20222 ft | 335 kts | 242° |
| 2026-04-17 12:02 | 47.09997 | 11.75131 | 20252 ft | 342 kts | 217° |
| 2026-04-17 12:03 | 47.07927 | 11.73394 | 20258 ft | 344 kts | 211° |
| 2026-04-17 12:03 | 47.05802 | 11.71854 | 20254 ft | 344 kts | 208° |
| 2026-04-17 12:03 | 47.03634 | 11.70354 | 20264 ft | 344 kts | 208° |
| 2026-04-17 12:03 | 47.01431 | 11.68854 | 20268 ft | 344 kts | 208° |
| 2026-04-17 12:04 | 46.99235 | 11.67366 | 20267 ft | 344 kts | 208° |
| 2026-04-17 12:04 | 46.97002 | 11.65858 | 20272 ft | 344 kts | 208° |
| 2026-04-17 12:04 | 46.94631 | 11.64261 | 20273 ft | 344 kts | 207° |
| 2026-04-17 12:04 | 46.92270 | 11.62674 | 20142 ft | 348 kts | 207° |
| 2026-04-17 12:05 | 46.89979 | 11.61135 | 19943 ft | 353 kts | 207° |
| 2026-04-17 12:05 | 46.87726 | 11.59625 | 19742 ft | 357 kts | 207° |
| 2026-04-17 12:05 | 46.85456 | 11.58107 | 19556 ft | 357 kts | 207° |
| 2026-04-17 12:05 | 46.83157 | 11.56572 | 19353 ft | 355 kts | 207° |
| 2026-04-17 12:06 | 46.80879 | 11.55053 | 19157 ft | 353 kts | 207° |
| 2026-04-17 12:06 | 46.78530 | 11.53488 | 18958 ft | 352 kts | 207° |
| 2026-04-17 12:06 | 46.76185 | 11.51928 | 18778 ft | 349 kts | 207° |
| 2026-04-17 12:06 | 46.73862 | 11.50382 | 18594 ft | 348 kts | 207° |
| 2026-04-17 12:07 | 46.71561 | 11.48854 | 18395 ft | 347 kts | 207° |
| 2026-04-17 12:07 | 46.69299 | 11.47353 | 18262 ft | 343 kts | 207° |
| 2026-04-17 12:07 | 46.67099 | 11.45894 | 18248 ft | 338 kts | 207° |
| 2026-04-17 12:07 | 46.64852 | 11.44404 | 18233 ft | 333 kts | 207° |
| 2026-04-17 12:08 | 46.62523 | 11.42859 | 18019 ft | 335 kts | 207° |
| 2026-04-17 12:08 | 46.60266 | 11.41362 | 17742 ft | 339 kts | 207° |
| 2026-04-17 12:08 | 46.57859 | 11.39768 | 17445 ft | 342 kts | 207° |
| 2026-04-17 12:08 | 46.55486 | 11.38198 | 17173 ft | 344 kts | 207° |
| 2026-04-17 12:09 | 46.53126 | 11.36639 | 16905 ft | 346 kts | 207° |
| 2026-04-17 12:09 | 46.50836 | 11.35128 | 16641 ft | 347 kts | 207° |
| 2026-04-17 12:09 | 46.48568 | 11.33632 | 16382 ft | 347 kts | 206° |
| 2026-04-17 12:09 | 46.46319 | 11.32473 | 16176 ft | 348 kts | 190° |
| 2026-04-17 12:10 | 46.43727 | 11.32480 | 16176 ft | 341 kts | 180° |
| 2026-04-17 12:10 | 46.41222 | 11.32385 | 16169 ft | 336 kts | 181° |
| 2026-04-17 12:10 | 46.38684 | 11.32349 | 16170 ft | 331 kts | 181° |
| 2026-04-17 12:10 | 46.36308 | 11.32331 | 16182 ft | 328 kts | 181° |
| 2026-04-17 12:11 | 46.33943 | 11.32321 | 16202 ft | 325 kts | 181° |
| 2026-04-17 12:11 | 46.31506 | 11.32318 | 16009 ft | 326 kts | 180° |
| 2026-04-17 12:11 | 46.29183 | 11.32320 | 15798 ft | 311 kts | 180° |
| 2026-04-17 12:12 | 46.24942 | 11.32331 | 15399 ft | 284 kts | 180° |
| 2026-04-17 12:12 | 46.22931 | 11.32338 | 15180 ft | 272 kts | 180° |
| 2026-04-17 12:12 | 46.20925 | 11.32345 | 14995 ft | 261 kts | 180° |
| 2026-04-17 12:12 | 46.18935 | 11.32353 | 14811 ft | 251 kts | 180° |
| 2026-04-17 12:13 | 46.17063 | 11.32361 | 14650 ft | 243 kts | 180° |
| 2026-04-17 12:13 | 46.15202 | 11.32369 | 14476 ft | 236 kts | 180° |
| 2026-04-17 12:13 | 46.13359 | 11.32377 | 14288 ft | 230 kts | 180° |
| 2026-04-17 12:13 | 46.11627 | 11.32385 | 14201 ft | 222 kts | 180° |
| 2026-04-17 12:14 | 46.10016 | 11.32393 | 14062 ft | 218 kts | 180° |
| 2026-04-17 12:14 | 46.08403 | 11.32400 | 13732 ft | 221 kts | 180° |
| 2026-04-17 12:14 | 46.06767 | 11.32407 | 13409 ft | 223 kts | 180° |
| 2026-04-17 12:14 | 46.05116 | 11.32415 | 13071 ft | 225 kts | 180° |
| 2026-04-17 12:15 | 46.03451 | 11.32136 | 12708 ft | 225 kts | 204° |
| 2026-04-17 12:15 | 46.02286 | 11.30608 | 12363 ft | 222 kts | 244° |
| 2026-04-17 12:15 | 46.01946 | 11.28369 | 12120 ft | 216 kts | 270° |
| 2026-04-17 12:15 | 46.01959 | 11.26253 | 12065 ft | 210 kts | 275° |
| 2026-04-17 12:16 | 46.02051 | 11.24196 | 12067 ft | 206 kts | 277° |
| 2026-04-17 12:16 | 46.02171 | 11.22150 | 12068 ft | 204 kts | 278° |
| 2026-04-17 12:16 | 46.02306 | 11.20111 | 12074 ft | 204 kts | 278° |
| 2026-04-17 12:16 | 46.02455 | 11.17997 | 12098 ft | 206 kts | 278° |
| 2026-04-17 12:17 | 46.02645 | 11.15950 | 12082 ft | 207 kts | 288° |
| 2026-04-17 12:17 | 46.03487 | 11.14314 | 12085 ft | 201 kts | 329° |
| 2026-04-17 12:17 | 46.04870 | 11.13878 | 12007 ft | 202 kts | 2° |
| 2026-04-17 12:17 | 46.06330 | 11.14190 | 11755 ft | 208 kts | 12° |
| 2026-04-17 12:18 | 46.07760 | 11.14701 | 11479 ft | 210 kts | 14° |
| 2026-04-17 12:18 | 46.09175 | 11.15269 | 11206 ft | 212 kts | 15° |
| 2026-04-17 12:18 | 46.10640 | 11.15885 | 10924 ft | 212 kts | 16° |
| 2026-04-17 12:18 | 46.12216 | 11.16513 | 10515 ft | 214 kts | 14° |
| 2026-04-17 12:19 | 46.13765 | 11.17100 | 10130 ft | 215 kts | 14° |
| 2026-04-17 12:19 | 46.15197 | 11.17642 | 9774 ft | 214 kts | 14° |
| 2026-04-17 12:19 | 46.16631 | 11.18189 | 9436 ft | 214 kts | 14° |
| 2026-04-17 12:19 | 46.18076 | 11.18745 | 9101 ft | 214 kts | 14° |
| 2026-04-17 12:20 | 46.19607 | 11.19337 | 8738 ft | 213 kts | 15° |
| 2026-04-17 12:20 | 46.21045 | 11.19897 | 8359 ft | 213 kts | 15° |
| 2026-04-17 12:20 | 46.22588 | 11.20499 | 7966 ft | 213 kts | 15° |
| 2026-04-17 12:20 | 46.24153 | 11.21153 | 7696 ft | 205 kts | 19° |
| 2026-04-17 12:21 | 46.25577 | 11.21901 | 7353 ft | 206 kts | 20° |
| 2026-04-17 12:21 | 46.27010 | 11.22695 | 6884 ft | 211 kts | 21° |
| 2026-04-17 12:21 | 46.28495 | 11.23526 | 6325 ft | 207 kts | 21° |
| 2026-04-17 12:21 | 46.29839 | 11.24277 | 5915 ft | 197 kts | 21° |
| 2026-04-17 12:22 | 46.31247 | 11.25066 | 5509 ft | 199 kts | 21° |
| 2026-04-17 12:22 | 46.32639 | 11.25844 | 5041 ft | 206 kts | 21° |
| 2026-04-17 12:22 | 46.34137 | 11.26682 | 4551 ft | 204 kts | 21° |
| 2026-04-17 12:22 | 46.35461 | 11.27420 | 4099 ft | 195 kts | 21° |
| 2026-04-17 12:23 | 46.36713 | 11.28119 | 3651 ft | 189 kts | 22° |
| 2026-04-17 12:23 | 46.37999 | 11.28838 | 3215 ft | 196 kts | 22° |
| 2026-04-17 12:23 | 46.39249 | 11.29536 | 3086 ft | 188 kts | 22° |
| 2026-04-17 12:23 | 46.40509 | 11.29801 | 3071 ft | 177 kts | 2° |
| 2026-04-17 12:24 | 46.41705 | 11.29814 | 3067 ft | 168 kts | 0° |
| 2026-04-17 12:24 | 46.42855 | 11.29786 | 3052 ft | 159 kts | 0° |
| 2026-04-17 12:24 | 46.43946 | 11.29750 | 2903 ft | 160 kts | 360° |
| 2026-04-17 12:24 | 46.45058 | 11.29715 | 2707 ft | 161 kts | 360° |
| 2026-04-17 12:25 | 46.46193 | 11.29844 | 2466 ft | 164 kts | 8° |
| 2026-04-17 12:25 | 46.47278 | 11.30062 | 2283 ft | 150 kts | 9° |
| 2026-04-17 12:25 | 46.48267 | 11.30360 | 1969 ft | 141 kts | 25° |
| 2026-04-17 12:25 | 46.48905 | 11.31311 | 1769 ft | 127 kts | 70° |
| 2026-04-17 12:26 | 46.48852 | 11.32510 | 1506 ft | 120 kts | 125° |
| 2026-04-17 12:26 | 46.48168 | 11.33017 | 1190 ft | 113 kts | 168° |
| 2026-04-17 12:26 | 46.47430 | 11.33011 | 1037 ft | 104 kts | 188° |
| 2026-04-17 12:26 | 46.46721 | 11.32813 | 885 ft | 102 kts | 190° |
| 2026-04-17 12:27 | 46.46098 | 11.32657 | 831 ft | 75 kts | 188° |
| 2026-04-17 12:27 | 46.45898 | 11.32614 | 831 ft | 11 kts | 57° |
| 2026-04-17 12:27 | 46.46001 | 11.32635 | 831 ft | 19 kts | 9° |
| 2026-04-17 12:27 | 46.46164 | 11.32678 | 831 ft | 26 kts | 10° |
| 2026-04-17 12:28 | 46.46242 | 11.32767 | 833 ft | 14 kts | 101° |
| 2026-04-17 12:28 | 46.46250 | 11.32875 | 834 ft | 10 kts | 99° |
| 2026-04-17 12:28 | 46.46249 | 11.32888 | 835 ft | 0 kts | 100° |